Time;durP1;ratioP1;P1;durP2;ratioP2;P2;SDS_P1;SDS_P2;PMS_P1;PMS_P2;Temp;Humidity;BMP_temperature;BMP_pressure;BME280_temperature;BME280_humidity;BME280_pressure;Samples;Min_cycle;Max_cycle;Signal;HPM_P1;HPM_P2
2021/01/13 00:01:30;;;;;;;;;;;;;;;;;;5054079;28;1961;-70
2021/01/13 00:03:55;;;;;;;;;;;;;;;;;;5054558;28;813;-69
2021/01/13 00:06:21;;;;;;;;;;;;;;;;;;5053022;28;1341;-69
2021/01/13 00:08:46;;;;;;;;;;;;;;;;;;5054360;28;931;-70
2021/01/13 00:11:13;;;;;;;;;;;;;;;;;;5054197;28;925;-70
2021/01/13 00:13:39;;;;;;;;;;;;;;;;;;5057054;28;1124;-69
2021/01/13 00:16:04;;;;;;;;;;;;;;;;;;5058291;28;1401;-69
2021/01/13 00:18:29;;;;;;;;;;;;;;;;;;5057302;28;1605;-69
2021/01/13 00:20:54;;;;;;;;;;;;;;;;;;5058192;28;1906;-70
2021/01/13 00:23:20;;;;;;;;;;;;;;;;;;5058553;28;826;-70
2021/01/13 00:25:45;;;;;;;;;;;;;;;;;;5058336;28;1274;-70
2021/01/13 00:28:10;;;;;;;;;;;;;;;;;;5058327;28;825;-70
2021/01/13 00:30:35;;;;;;;;;;;;;;;;;;5057961;28;952;-69
2021/01/13 00:33:00;;;;;;;;;;;;;;;;;;5057085;28;853;-69
2021/01/13 00:35:26;;;;;;;;;;;;;;;;;;5056928;28;1397;-70
2021/01/13 00:37:51;;;;;;;;;;;;;;;;;;5057001;28;1461;-69
2021/01/13 00:40:16;;;;;;;;;;;;;;;;;;5057956;28;1898;-69
2021/01/13 00:42:43;;;;;;;;;;;;;;;;;;5056539;28;1393;-70
2021/01/13 00:45:08;;;;;;;;;;;;;;;;;;5056567;28;1382;-69
2021/01/13 00:47:34;;;;;;;;;;;;;;;;;;5056958;28;1157;-69
2021/01/13 00:49:59;;;;;;;;;;;;;;;;;;5056821;28;897;-69
2021/01/13 00:52:24;;;;;;;;;;;;;;;;;;5057650;28;825;-68
2021/01/13 00:54:49;;;;;;;;;;;;;;;;;;5057752;28;1321;-69
2021/01/13 00:57:14;;;;;;;;;;;;;;;;;;5057857;28;892;-69
2021/01/13 00:59:40;;;;;;;;;;;;;;;;;;5057616;28;928;-69
2021/01/13 01:02:05;;;;;;;;;;;;;;;;;;5057713;28;1897;-69
2021/01/13 01:04:30;;;;;;;;;;;;;;;;;;5056066;28;1428;-70
2021/01/13 01:06:55;;;;;;;;;;;;;;;;;;5056239;28;787;-69
2021/01/13 01:09:21;;;;;;;;;;;;;;;;;;5057678;28;833;-69
2021/01/13 01:11:46;;;;;;;;;;;;;;;;;;5057128;28;884;-69
2021/01/13 01:14:11;;;;;;;;;;;;;;;;;;5057419;28;932;-72
2021/01/13 01:16:37;;;;;;;;;;;;;;;;;;5057437;28;1341;-70
2021/01/13 01:19:04;;;;;;;;;;;;;;;;;;5057364;28;813;-69
2021/01/13 01:21:29;;;;;;;;;;;;;;;;;;5057238;28;1961;-70
2021/01/13 01:23:54;;;;;;;;;;;;;;;;;;5055395;28;1458;-70
2021/01/13 01:26:20;;;;;;;;;;;;;;;;;;5057176;28;1306;-70
2021/01/13 01:28:45;;;;;;;;;;;;;;;;;;5057135;28;1066;-69
2021/01/13 01:31:10;;;;;;;;;;;;;;;;;;5056957;28;928;-70
2021/01/13 01:33:36;;;;;;;;;;;;;;;;;;5057522;28;841;-70
2021/01/13 01:36:01;;;;;;;;;;;;;;;;;;5055787;28;1545;-70
2021/01/13 01:38:26;;;;;;;;;;;;;;;;;;5055564;28;1371;-70
2021/01/13 01:40:51;;;;;;;;;;;;;;;;;;5055708;28;1947;-70
2021/01/13 01:43:16;;;;;;;;;;;;;;;;;;5056828;28;963;-70
2021/01/13 01:45:42;;;;;;;;;;;;;;;;;;5056750;28;1282;-70
2021/01/13 01:48:12;;;;;;;;;;;;;;;;;;5056908;28;797;-68
2021/01/13 01:50:38;;;;;;;;;;;;;;;;;;5056675;28;821;-70
2021/01/13 01:53:17;;;;;;;;;;;;;;;;;;5055262;28;1195;-70
2021/01/13 01:56:01;;;;;;;;;;;;;;;;;;5056571;28;1334;-69
2021/01/13 01:58:31;;;;;;;;;;;;;;;;;;5056737;28;852;-69
2021/01/13 02:00:57;;;;;;;;;;;;;;;;;;5056418;28;1906;-69
2021/01/13 02:03:23;;;;;;;;;;;;;;;;;;5055251;28;921;-70
2021/01/13 02:05:53;;;;;;;;;;;;;;;;;;5056474;28;1305;-69
2021/01/13 02:08:20;;;;;;;;;;;;;;;;;;5056270;28;885;-69
2021/01/13 02:10:46;;;;;;;;;;;;;;;;;;5056195;28;829;-69
2021/01/13 02:13:12;;;;;;;;;;;;;;;;;;5055389;28;1466;-70
2021/01/13 02:15:37;;;;;;;;;;;;;;;;;;5054894;28;1337;-69
2021/01/13 02:18:03;;;;;;;;;;;;;;;;;;5055304;28;1190;-69
2021/01/13 02:20:30;;;;;;;;;;;;;;;;;;5056055;28;1902;-69
2021/01/13 02:22:57;;;;;;;;;;;;;;;;;;5056095;28;964;-69
2021/01/13 02:25:41;;;;;;;;;;;;;;;;;;5054649;28;1341;-69
2021/01/13 02:28:07;;;;;;;;;;;;;;;;;;5056180;28;849;-68
2021/01/13 02:30:35;;;;;;;;;;;;;;;;;;5055769;28;940;-68
2021/01/13 02:33:03;;;;;;;;;;;;;;;;;;5054706;28;1107;-69
2021/01/13 02:35:41;;;;;;;;;;;;;;;;;;5054935;28;1400;-69
2021/01/13 02:38:08;;;;;;;;;;;;;;;;;;5055784;28;959;-69
2021/01/13 02:40:33;;;;;;;;;;;;;;;;;;5054519;28;1970;-67
2021/01/13 02:43:03;;;;;;;;;;;;;;;;;;5054580;28;1447;-68
2021/01/13 02:45:36;;;;;;;;;;;;;;;;;;5054325;28;1420;-69
2021/01/13 02:48:09;;;;;;;;;;;;;;;;;;5055420;28;916;-68
2021/01/13 02:50:55;;;;;;;;;;;;;;;;;;5054054;28;1412;-68
2021/01/13 02:53:20;;;;;;;;;;;;;;;;;;5055386;28;1023;-68
2021/01/13 02:55:48;;;;;;;;;;;;;;;;;;5055468;28;1290;-67
2021/01/13 02:58:18;;;;;;;;;;;;;;;;;;5054028;28;1730;-69
2021/01/13 03:00:43;;;;;;;;;;;;;;;;;;5054875;28;1915;-70
2021/01/13 03:03:10;;;;;;;;;;;;;;;;;;5054181;28;921;-70
2021/01/13 03:05:35;;;;;;;;;;;;;;;;;;5054014;28;1282;-69
2021/01/13 03:08:01;;;;;;;;;;;;;;;;;;5055343;28;859;-69
2021/01/13 03:10:27;;;;;;;;;;;;;;;;;;5054132;28;1132;-70
2021/01/13 03:12:58;;;;;;;;;;;;;;;;;;5053881;28;1063;-69
2021/01/13 03:15:25;;;;;;;;;;;;;;;;;;5053682;28;1341;-69
2021/01/13 03:18:02;;;;;;;;;;;;;;;;;;5055127;28;1028;-69
2021/01/13 03:20:34;;;;;;;;;;;;;;;;;;5055114;28;1894;-69
2021/01/13 03:23:19;;;;;;;;;;;;;;;;;;5054988;28;1132;-69
2021/01/13 03:25:55;;;;;;;;;;;;;;;;;;5053493;28;1383;-70
2021/01/13 03:28:24;;;;;;;;;;;;;;;;;;5054893;28;1003;-69
2021/01/13 03:30:50;;;;;;;;;;;;;;;;;;5054693;28;889;-69
2021/01/13 03:33:15;;;;;;;;;;;;;;;;;;5053643;28;1670;-68
2021/01/13 03:35:44;;;;;;;;;;;;;;;;;;5054562;28;1400;-70
2021/01/13 03:38:14;;;;;;;;;;;;;;;;;;5054811;28;912;-70
2021/01/13 03:40:41;;;;;;;;;;;;;;;;;;5053372;28;1977;-69
2021/01/13 03:43:14;;;;;;;;;;;;;;;;;;5054483;28;916;-69
2021/01/13 03:45:39;;;;;;;;;;;;;;;;;;5054551;28;1353;-69
2021/01/13 03:48:18;;;;;;;;;;;;;;;;;;5053340;28;1694;-69
2021/01/13 03:50:46;;;;;;;;;;;;;;;;;;5054719;28;849;-70
2021/01/13 03:53:12;;;;;;;;;;;;;;;;;;5053220;28;894;-70
2021/01/13 03:55:39;;;;;;;;;;;;;;;;;;5054484;28;1310;-69
2021/01/13 03:58:04;;;;;;;;;;;;;;;;;;5054531;28;854;-70
2021/01/13 04:00:35;;;;;;;;;;;;;;;;;;5054247;28;1979;-69
2021/01/13 04:03:18;;;;;;;;;;;;;;;;;;5036330;28;1468;-69
2021/01/13 04:05:53;;;;;;;;;;;;;;;;;;5053092;28;1486;-69
2021/01/13 04:08:18;;;;;;;;;;;;;;;;;;5053408;28;842;-69
2021/01/13 04:10:44;;;;;;;;;;;;;;;;;;5053085;28;1456;-69
2021/01/13 04:13:15;;;;;;;;;;;;;;;;;;5054173;28;964;-68
2021/01/13 04:15:40;;;;;;;;;;;;;;;;;;5052840;28;1404;-69
2021/01/13 04:18:08;;;;;;;;;;;;;;;;;;5054407;28;869;-69
2021/01/13 04:20:34;;;;;;;;;;;;;;;;;;5054055;28;1965;-70
2021/01/13 04:23:00;;;;;;;;;;;;;;;;;;5054297;28;967;-69
2021/01/13 04:25:25;;;;;;;;;;;;;;;;;;5054384;28;1298;-69
2021/01/13 04:27:50;;;;;;;;;;;;;;;;;;5052694;28;1464;-70
2021/01/13 04:30:16;;;;;;;;;;;;;;;;;;5054034;28;797;-70
2021/01/13 04:32:42;;;;;;;;;;;;;;;;;;5054408;28;794;-69
2021/01/13 04:35:07;;;;;;;;;;;;;;;;;;5052934;28;1286;-69
2021/01/13 04:37:34;;;;;;;;;;;;;;;;;;5053986;28;809;-69
2021/01/13 04:40:02;;;;;;;;;;;;;;;;;;5053945;28;968;-70
2021/01/13 04:42:42;;;;;;;;;;;;;;;;;;5054075;28;1886;-69
2021/01/13 04:45:08;;;;;;;;;;;;;;;;;;5054276;28;1302;-69
2021/01/13 04:47:50;;;;;;;;;;;;;;;;;;5052741;28;1206;-69
2021/01/13 04:50:19;;;;;;;;;;;;;;;;;;5053944;28;1012;-68
2021/01/13 04:52:46;;;;;;;;;;;;;;;;;;5052724;28;1398;-69
2021/01/13 04:55:20;;;;;;;;;;;;;;;;;;5054118;28;1286;-69
2021/01/13 04:58:09;;;;;;;;;;;;;;;;;;5054454;28;885;-70
2021/01/13 05:00:53;;;;;;;;;;;;;;;;;;5065701;28;1955;-69
2021/01/13 05:03:36;;;;;;;;;;;;;;;;;;5057665;28;911;-69
2021/01/13 05:06:20;;;;;;;;;;;;;;;;;;5057600;28;1306;-68
2021/01/13 05:08:58;;;;;;;;;;;;;;;;;;5057384;28;963;-69
2021/01/13 05:11:23;;;;;;;;;;;;;;;;;;5056354;28;907;-69
2021/01/13 05:13:52;;;;;;;;;;;;;;;;;;5057571;28;801;-70
2021/01/13 05:16:17;;;;;;;;;;;;;;;;;;5057265;28;1290;-69
2021/01/13 05:18:59;;;;;;;;;;;;;;;;;;5056263;28;956;-69
2021/01/13 05:21:26;;;;;;;;;;;;;;;;;;5055836;28;1902;-70
2021/01/13 05:23:55;;;;;;;;;;;;;;;;;;5057308;28;821;-69
2021/01/13 05:26:25;;;;;;;;;;;;;;;;;;5056729;28;1405;-70
2021/01/13 05:29:02;;;;;;;;;;;;;;;;;;5055596;28;745;-68
2021/01/13 05:31:32;;;;;;;;;;;;;;;;;;5056643;28;808;-69
2021/01/13 05:33:57;;;;;;;;;;;;;;;;;;5056756;28;948;-69
2021/01/13 05:36:28;;;;;;;;;;;;;;;;;;5056974;28;1397;-68
2021/01/13 05:39:07;;;;;;;;;;;;;;;;;;5056749;28;976;-70
2021/01/13 05:41:37;;;;;;;;;;;;;;;;;;5056438;28;1894;-69
2021/01/13 05:44:02;;;;;;;;;;;;;;;;;;5056582;28;907;-70
2021/01/13 05:46:37;;;;;;;;;;;;;;;;;;5056573;28;1354;-70
2021/01/13 05:49:03;;;;;;;;;;;;;;;;;;5055576;28;1129;-70
2021/01/13 05:51:29;;;;;;;;;;;;;;;;;;5056327;28;980;-70
2021/01/13 05:53:54;;;;;;;;;;;;;;;;;;5056375;28;880;-69
2021/01/13 05:56:20;;;;;;;;;;;;;;;;;;5056246;28;1367;-70
2021/01/13 05:58:45;;;;;;;;;;;;;;;;;;5054949;28;1171;-68
2021/01/13 06:01:34;;;;;;;;;;;;;;;;;;5054901;28;1980;-69
2021/01/13 06:03:59;;;;;;;;;;;;;;;;;;5056510;28;833;-68
2021/01/13 06:06:25;;;;;;;;;;;;;;;;;;5056483;28;1351;-68
2021/01/13 06:08:53;;;;;;;;;;;;;;;;;;5055688;28;841;-70
2021/01/13 06:11:18;;;;;;;;;;;;;;;;;;5055200;28;995;-69
2021/01/13 06:13:44;;;;;;;;;;;;;;;;;;5056240;28;801;-69
2021/01/13 06:16:10;;;;;;;;;;;;;;;;;;5055824;28;1424;-68
2021/01/13 06:18:35;;;;;;;;;;;;;;;;;;5056003;28;860;-70
2021/01/13 06:21:08;;;;;;;;;;;;;;;;;;5054447;28;1973;-70
2021/01/13 06:23:40;;;;;;;;;;;;;;;;;;5054462;28;1294;-69
2021/01/13 06:26:05;;;;;;;;;;;;;;;;;;5055907;28;1286;-70
2021/01/13 06:28:49;;;;;;;;;;;;;;;;;;5055938;28;818;-69
2021/01/13 06:31:20;;;;;;;;;;;;;;;;;;5055616;28;1031;-68
2021/01/13 06:33:48;;;;;;;;;;;;;;;;;;5055718;28;865;-70
2021/01/13 06:36:21;;;;;;;;;;;;;;;;;;5054331;28;1432;-70
2021/01/13 06:38:56;;;;;;;;;;;;;;;;;;5055612;28;853;-70
2021/01/13 06:41:22;;;;;;;;;;;;;;;;;;5053893;28;1965;-68
2021/01/13 06:44:17;;;;;;;;;;;;;;;;;;5054136;28;841;-69
2021/01/13 06:46:42;;;;;;;;;;;;;;;;;;5059257;28;1568;-71
2021/01/13 06:49:10;;;;;;;;;;;;;;;;;;5055576;28;959;-73
2021/01/13 06:51:36;;;;;;;;;;;;;;;;;;5053889;28;1471;-75
2021/01/13 06:54:02;;;;;;;;;;;;;;;;;;5055380;28;822;-72
2021/01/13 06:56:28;;;;;;;;;;;;;;;;;;5055065;28;1420;-71
2021/01/13 06:58:57;;;;;;;;;;;;;;;;;;5055298;28;798;-73
2021/01/13 07:01:22;;;;;;;;;;;;;;;;;;5053775;28;1881;-71
2021/01/13 07:03:55;;;;;;;;;;;;;;;;;;5055279;28;836;-69
2021/01/13 07:06:21;;;;;;;;;;;;;;;;;;5054054;28;1317;-73
2021/01/13 07:08:46;;;;;;;;;;;;;;;;;;5054882;28;896;-73
2021/01/13 07:11:11;;;;;;;;;;;;;;;;;;5054873;28;849;-68
2021/01/13 07:13:40;;;;;;;;;;;;;;;;;;5055310;28;955;-70
2021/01/13 07:16:06;;;;;;;;;;;;;;;;;;5054865;28;1390;-71
2021/01/13 07:18:32;;;;;;;;;;;;;;;;;;5054002;28;960;-69
2021/01/13 07:21:05;;;;;;;;;;;;;;;;;;5052912;28;1902;-70
2021/01/13 07:23:30;;;;;;;;;;;;;;;;;;5054691;28;813;-72
2021/01/13 07:25:56;;;;;;;;;;;;;;;;;;5053723;28;1482;-70
2021/01/13 07:28:21;;;;;;;;;;;;;;;;;;5053523;28;1302;-74
2021/01/13 07:30:46;;;;;;;;;;;;;;;;;;5054544;28;936;-71
2021/01/13 07:33:13;;;;;;;;;;;;;;;;;;5054469;28;793;-70
2021/01/13 07:35:45;;;;;;;;;;;;;;;;;;5054599;28;1409;-71
2021/01/13 07:38:17;;;;;;;;;;;;;;;;;;5054489;28;956;-73
2021/01/13 07:40:59;;;;;;;;;;;;;;;;;;5054212;28;1967;-72
2021/01/13 07:43:43;;;;;;;;;;;;;;;;;;5054467;28;833;-70
2021/01/13 07:46:16;;;;;;;;;;;;;;;;;;5054105;28;1349;-70
2021/01/13 07:48:50;;;;;;;;;;;;;;;;;;5054352;28;925;-74
2021/01/13 07:51:18;;;;;;;;;;;;;;;;;;5054066;28;892;-69
2021/01/13 07:53:56;;;;;;;;;;;;;;;;;;5054273;28;880;-69
2021/01/13 07:56:24;;;;;;;;;;;;;;;;;;5054015;28;1464;-72
2021/01/13 07:59:15;;;;;;;;;;;;;;;;;;5054252;28;1102;-71
2021/01/13 08:02:03;;;;;;;;;;;;;;;;;;5052271;28;1890;-70
2021/01/13 08:04:47;;;;;;;;;;;;;;;;;;5054069;28;1329;-70
2021/01/13 08:07:16;;;;;;;;;;;;;;;;;;5054062;28;975;-71
2021/01/13 08:09:47;;;;;;;;;;;;;;;;;;5053671;28;878;-72
2021/01/13 08:12:29;;;;;;;;;;;;;;;;;;5052736;28;821;-69
2021/01/13 08:15:01;;;;;;;;;;;;;;;;;;5052532;28;1369;-74
2021/01/13 08:20:26;;;;;;;;;;;;;;;;;;5053236;28;1902;-72
2021/01/13 08:23:00;;;;;;;;;;;;;;;;;;5052699;28;1360;-73
2021/01/13 08:25:46;;;;;;;;;;;;;;;;;;5052649;28;1404;-73
2021/01/13 08:28:12;;;;;;;;;;;;;;;;;;5051793;28;1315;-70
2021/01/13 08:30:40;;;;;;;;;;;;;;;;;;5053924;28;844;-74
2021/01/13 08:33:09;;;;;;;;;;;;;;;;;;5054906;28;879;-73
2021/01/13 08:35:35;;;;;;;;;;;;;;;;;;5058124;28;1427;-73
2021/01/13 08:38:07;;;;;;;;;;;;;;;;;;5057614;28;888;-73
2021/01/13 08:40:34;;;;;;;;;;;;;;;;;;5056514;28;1965;-75
2021/01/13 08:43:06;;;;;;;;;;;;;;;;;;5057803;28;817;-72
2021/01/13 08:45:39;;;;;;;;;;;;;;;;;;5056336;28;1278;-74
2021/01/13 08:48:06;;;;;;;;;;;;;;;;;;5057837;28;859;-73
2021/01/13 08:50:31;;;;;;;;;;;;;;;;;;5056294;28;1357;-71
2021/01/13 08:53:01;;;;;;;;;;;;;;;;;;5057543;28;912;-74
2021/01/13 08:55:26;;;;;;;;;;;;;;;;;;5057659;28;1384;-74
2021/01/13 08:57:53;;;;;;;;;;;;;;;;;;5057572;28;909;-73
2021/01/13 09:00:19;;;;;;;;;;;;;;;;;;5057492;28;801;-72
2021/01/13 09:03:11;;;;;;;;;;;;;;;;;;5057228;28;1973;-74
2021/01/13 09:05:37;;;;;;;;;;;;;;;;;;5055828;28;1547;-76
2021/01/13 09:08:04;;;;;;;;;;;;;;;;;;5055988;28;1860;-71
2021/01/13 09:10:46;;;;;;;;;;;;;;;;;;5055744;28;1451;-76
2021/01/13 09:13:30;;;;;;;;;;;;;;;;;;5056006;28;761;-74
2021/01/13 09:15:55;;;;;;;;;;;;;;;;;;5057058;28;1385;-72
2021/01/13 09:18:22;;;;;;;;;;;;;;;;;;5057319;28;928;-73
2021/01/13 09:20:49;;;;;;;;;;;;;;;;;;5057059;28;1973;-70
2021/01/13 09:23:21;;;;;;;;;;;;;;;;;;5056980;28;825;-71
2021/01/13 09:25:50;;;;;;;;;;;;;;;;;;5056924;28;1286;-71
2021/01/13 09:28:18;;;;;;;;;;;;;;;;;;5057057;28;980;-72
2021/01/13 09:30:43;;;;;;;;;;;;;;;;;;5056682;28;805;-73
2021/01/13 09:33:11;;;;;;;;;;;;;;;;;;5057020;28;830;-74
2021/01/13 09:35:38;;;;;;;;;;;;;;;;;;5056806;28;1345;-72
2021/01/13 09:38:06;;;;;;;;;;;;;;;;;;5056883;28;833;-71
2021/01/13 09:40:50;;;;;;;;;;;;;;;;;;5056454;28;1982;-69
2021/01/13 09:43:32;;;;;;;;;;;;;;;;;;5056683;28;768;-71
2021/01/13 09:46:02;;;;;;;;;;;;;;;;;;5056497;28;1294;-70
2021/01/13 09:48:29;;;;;;;;;;;;;;;;;;5055454;28;1469;-73
2021/01/13 09:50:59;;;;;;;;;;;;;;;;;;5055405;28;889;-73
2021/01/13 09:53:31;;;;;;;;;;;;;;;;;;5056370;28;809;-69
2021/01/13 09:56:07;;;;;;;;;;;;;;;;;;5056396;28;1393;-71
2021/01/13 09:58:38;;;;;;;;;;;;;;;;;;5055067;28;1345;-74
2021/01/13 10:01:11;;;;;;;;;;;;;;;;;;5056093;28;1960;-72
2021/01/13 10:03:36;;;;;;;;;;;;;;;;;;5055097;28;1210;-74
2021/01/13 10:06:02;;;;;;;;;;;;;;;;;;5054746;28;1338;-72
2021/01/13 10:08:31;;;;;;;;;;;;;;;;;;5056460;28;856;-71
2021/01/13 10:10:57;;;;;;;;;;;;;;;;;;5054959;28;1599;-70
2021/01/13 10:13:23;;;;;;;;;;;;;;;;;;5064231;28;1460;-73
2021/01/13 10:15:49;;;;;;;;;;;;;;;;;;5055845;28;1400;-72
2021/01/13 10:18:14;;;;;;;;;;;;;;;;;;5055926;28;882;-71
2021/01/13 10:20:40;;;;;;;;;;;;;;;;;;5055743;28;1967;-72
2021/01/13 10:23:06;;;;;;;;;;;;;;;;;;5055983;28;1180;-72
2021/01/13 10:25:33;;;;;;;;;;;;;;;;;;5055777;28;1286;-74
2021/01/13 10:27:59;;;;;;;;;;;;;;;;;;5055765;28;1203;-71
2021/01/13 10:30:25;;;;;;;;;;;;;;;;;;5054265;28;908;-70
2021/01/13 10:32:55;;;;;;;;;;;;;;;;;;5055894;28;1031;-70
2021/01/13 10:35:21;;;;;;;;;;;;;;;;;;5055484;28;1325;-71
2021/01/13 10:37:56;;;;;;;;;;;;;;;;;;5054543;28;1440;-73
2021/01/13 10:40:23;;;;;;;;;;;;;;;;;;5054252;28;1913;-71
2021/01/13 10:42:49;;;;;;;;;;;;;;;;;;5055545;28;2108;-71
2021/01/13 10:45:15;;;;;;;;;;;;;;;;;;5055532;28;1400;-71
2021/01/13 10:47:44;;;;;;;;;;;;;;;;;;5055342;28;1139;-69
2021/01/13 10:50:11;;;;;;;;;;;;;;;;;;5053948;28;861;-70
2021/01/13 10:52:38;;;;;;;;;;;;;;;;;;5055432;28;908;-73
2021/01/13 10:55:08;;;;;;;;;;;;;;;;;;5055158;28;1381;-71
2021/01/13 10:57:35;;;;;;;;;;;;;;;;;;5054914;28;832;-71
2021/01/13 11:00:05;;;;;;;;;;;;;;;;;;5054979;28;927;-70
2021/01/13 11:02:30;;;;;;;;;;;;;;;;;;5055144;28;1889;-73
2021/01/13 11:04:58;;;;;;;;;;;;;;;;;;5053904;28;1333;-70
2021/01/13 11:07:25;;;;;;;;;;;;;;;;;;5053618;28;1681;-69
2021/01/13 11:09:51;;;;;;;;;;;;;;;;;;5054961;28;871;-72
2021/01/13 11:12:21;;;;;;;;;;;;;;;;;;5053443;28;1419;-70
2021/01/13 11:14:47;;;;;;;;;;;;;;;;;;5059364;28;1970;-68
2021/01/13 11:17:12;;;;;;;;;;;;;;;;;;5074640;28;822;-68
2021/01/13 11:19:42;;;;;;;;;;;;;;;;;;5074542;28;793;-70
2021/01/13 11:22:07;;;;;;;;;;;;;;;;;;5073396;28;1894;-70
2021/01/13 11:24:36;;;;;;;;;;;;;;;;;;5073227;28;1436;-69
2021/01/13 11:27:03;;;;;;;;;;;;;;;;;;5073577;28;1413;-68
2021/01/13 11:29:31;;;;;;;;;;;;;;;;;;5074657;28;858;-70
2021/01/13 11:31:57;;;;;;;;;;;;;;;;;;5074522;28;784;-70
2021/01/13 11:34:23;;;;;;;;;;;;;;;;;;5073007;28;1353;-70
2021/01/13 11:37:04;;;;;;;;;;;;;;;;;;5074251;28;842;-70
2021/01/13 11:39:31;;;;;;;;;;;;;;;;;;5074281;28;880;-68
2021/01/13 11:42:19;;;;;;;;;;;;;;;;;;5074233;28;1893;-70
2021/01/13 11:45:05;;;;;;;;;;;;;;;;;;5073811;28;1384;-71
2021/01/13 11:47:32;;;;;;;;;;;;;;;;;;5074333;28;884;-72
2021/01/13 11:49:59;;;;;;;;;;;;;;;;;;5074262;28;977;-70
2021/01/13 11:52:29;;;;;;;;;;;;;;;;;;5074058;28;825;-69
2021/01/13 11:54:55;;;;;;;;;;;;;;;;;;5074192;28;1266;-71
2021/01/13 11:57:20;;;;;;;;;;;;;;;;;;5074300;28;853;-68
2021/01/13 11:59:46;;;;;;;;;;;;;;;;;;5074089;28;892;-72
2021/01/13 12:02:25;;;;;;;;;;;;;;;;;;5073123;28;1902;-69
2021/01/13 12:04:51;;;;;;;;;;;;;;;;;;5073919;28;1286;-69
2021/01/13 12:07:16;;;;;;;;;;;;;;;;;;5074348;28;797;-71
2021/01/13 12:09:43;;;;;;;;;;;;;;;;;;5074036;28;801;-71
2021/01/13 12:12:08;;;;;;;;;;;;;;;;;;5074159;28;998;-67
2021/01/13 12:14:38;;;;;;;;;;;;;;;;;;5073637;28;1321;-68
2021/01/13 12:17:03;;;;;;;;;;;;;;;;;;5073848;28;892;-68
2021/01/13 12:19:55;;;;;;;;;;;;;;;;;;5073868;28;920;-69
2021/01/13 12:22:31;;;;;;;;;;;;;;;;;;5073647;28;1898;-72
2021/01/13 12:24:56;;;;;;;;;;;;;;;;;;5073983;28;1301;-69
2021/01/13 12:27:22;;;;;;;;;;;;;;;;;;5073783;28;901;-71
2021/01/13 12:30:05;;;;;;;;;;;;;;;;;;5073685;28;797;-70
2021/01/13 12:32:30;;;;;;;;;;;;;;;;;;5072954;28;1332;-69
2021/01/13 12:34:56;;;;;;;;;;;;;;;;;;5073691;28;1270;-70
2021/01/13 12:37:21;;;;;;;;;;;;;;;;;;5072389;28;1547;-69
2021/01/13 12:39:54;;;;;;;;;;;;;;;;;;5073618;28;1160;-70
2021/01/13 12:42:19;;;;;;;;;;;;;;;;;;5073809;28;1894;-69
2021/01/13 12:44:45;;;;;;;;;;;;;;;;;;5073889;28;1436;-70
2021/01/13 12:47:11;;;;;;;;;;;;;;;;;;5073701;28;952;-66
2021/01/13 12:49:37;;;;;;;;;;;;;;;;;;5073677;28;853;-66
2021/01/13 12:52:02;;;;;;;;;;;;;;;;;;5072403;28;979;-67
2021/01/13 12:54:28;;;;;;;;;;;;;;;;;;5072687;28;1411;-67
2021/01/13 12:56:53;;;;;;;;;;;;;;;;;;5073468;28;980;-69
2021/01/13 12:59:19;;;;;;;;;;;;;;;;;;5073852;28;873;-67
2021/01/13 13:01:45;;;;;;;;;;;;;;;;;;5073311;28;1965;-69
2021/01/13 13:04:11;;;;;;;;;;;;;;;;;;5073606;28;853;-67
2021/01/13 13:06:37;;;;;;;;;;;;;;;;;;5073328;28;1428;-66
2021/01/13 13:09:04;;;;;;;;;;;;;;;;;;5072626;28;1340;-69
2021/01/13 13:11:29;;;;;;;;;;;;;;;;;;5072059;28;1226;-70
2021/01/13 13:13:55;;;;;;;;;;;;;;;;;;5072076;28;1213;-70
2021/01/13 13:16:21;;;;;;;;;;;;;;;;;;5073257;28;1302;-70
2021/01/13 13:18:47;;;;;;;;;;;;;;;;;;5072496;28;1329;-70
2021/01/13 13:21:13;;;;;;;;;;;;;;;;;;5076935;28;1984;-70
2021/01/13 13:23:39;;;;;;;;;;;;;;;;;;5077053;28;868;-70
2021/01/13 13:26:04;;;;;;;;;;;;;;;;;;5077027;28;1314;-70
2021/01/13 13:28:30;;;;;;;;;;;;;;;;;;5076863;28;893;-72
2021/01/13 13:30:55;;;;;;;;;;;;;;;;;;5076787;28;980;-72
2021/01/13 13:33:20;;;;;;;;;;;;;;;;;;5077133;28;1184;-73
2021/01/13 13:35:46;;;;;;;;;;;;;;;;;;5077063;28;1412;-73
2021/01/13 13:38:11;;;;;;;;;;;;;;;;;;5076803;28;880;-73
2021/01/13 13:40:36;;;;;;;;;;;;;;;;;;5075098;28;2326;-73
2021/01/13 13:43:01;;;;;;;;;;;;;;;;;;5076472;28;1007;-73
2021/01/13 13:45:26;;;;;;;;;;;;;;;;;;5075667;28;1396;-73
2021/01/13 13:47:52;;;;;;;;;;;;;;;;;;5075353;28;1649;-73
2021/01/13 13:50:17;;;;;;;;;;;;;;;;;;5076259;28;872;-73
2021/01/13 13:52:42;;;;;;;;;;;;;;;;;;5076426;28;865;-73
2021/01/13 13:55:08;;;;;;;;;;;;;;;;;;5076430;28;1294;-73
2021/01/13 13:57:33;;;;;;;;;;;;;;;;;;5076438;28;770;-73
2021/01/13 13:59:58;;;;;;;;;;;;;;;;;;5076187;28;809;-73
2021/01/13 14:02:24;;;;;;;;;;;;;;;;;;5075137;28;1894;-73
2021/01/13 14:04:49;;;;;;;;;;;;;;;;;;5076367;28;1318;-73
2021/01/13 14:07:14;;;;;;;;;;;;;;;;;;5076161;28;889;-72
2021/01/13 14:09:39;;;;;;;;;;;;;;;;;;5074736;28;1212;-73
2021/01/13 14:12:05;;;;;;;;;;;;;;;;;;5076251;28;921;-73
2021/01/13 14:14:30;;;;;;;;;;;;;;;;;;5075833;28;1372;-73
2021/01/13 14:16:55;;;;;;;;;;;;;;;;;;5074926;28;1208;-73
2021/01/13 14:19:21;;;;;;;;;;;;;;;;;;5075301;28;856;-72
2021/01/13 14:21:46;;;;;;;;;;;;;;;;;;5074178;28;1906;-72
2021/01/13 14:24:11;;;;;;;;;;;;;;;;;;5074904;28;869;-72
2021/01/13 14:26:36;;;;;;;;;;;;;;;;;;5074549;28;1388;-72
2021/01/13 14:29:02;;;;;;;;;;;;;;;;;;5075799;28;880;-72
2021/01/13 14:31:36;;;;;;;;;;;;;;;;;;5074462;28;875;-72
2021/01/13 14:34:02;;;;;;;;;;;;;;;;;;5074888;28;1131;-72
2021/01/13 14:36:28;;;;;;;;;;;;;;;;;;5074297;28;1324;-72
2021/01/13 14:38:53;;;;;;;;;;;;;;;;;;5075641;28;785;-72
2021/01/13 14:41:18;;;;;;;;;;;;;;;;;;5073666;28;1910;-73
2021/01/13 14:43:44;;;;;;;;;;;;;;;;;;5074508;28;1366;-73
2021/01/13 14:46:09;;;;;;;;;;;;;;;;;;5075653;28;1302;-72
2021/01/13 14:48:35;;;;;;;;;;;;;;;;;;5075534;28;805;-73
2021/01/13 14:51:00;;;;;;;;;;;;;;;;;;5075029;28;1298;-73
2021/01/13 14:53:25;;;;;;;;;;;;;;;;;;5074786;28;817;-73
2021/01/13 14:55:50;;;;;;;;;;;;;;;;;;5075130;28;1369;-73
2021/01/13 14:58:16;;;;;;;;;;;;;;;;;;5073943;28;1198;-71
2021/01/13 15:00:41;;;;;;;;;;;;;;;;;;5073331;28;1948;-73
2021/01/13 15:03:07;;;;;;;;;;;;;;;;;;5073720;28;825;-73
2021/01/13 15:05:35;;;;;;;;;;;;;;;;;;5075067;28;1345;-73
2021/01/13 15:08:00;;;;;;;;;;;;;;;;;;5075010;28;892;-73
2021/01/13 15:10:25;;;;;;;;;;;;;;;;;;5073991;28;830;-73
2021/01/13 15:12:51;;;;;;;;;;;;;;;;;;5075254;28;892;-73
2021/01/13 15:15:16;;;;;;;;;;;;;;;;;;5074063;28;1281;-73
2021/01/13 15:17:41;;;;;;;;;;;;;;;;;;5074392;28;916;-73
2021/01/13 15:20:07;;;;;;;;;;;;;;;;;;5074634;28;885;-73
2021/01/13 15:22:32;;;;;;;;;;;;;;;;;;5074761;28;1894;-73
2021/01/13 15:24:58;;;;;;;;;;;;;;;;;;5073319;28;1314;-73
2021/01/13 15:27:23;;;;;;;;;;;;;;;;;;5074883;28;829;-73
2021/01/13 15:29:49;;;;;;;;;;;;;;;;;;5074595;28;811;-73
2021/01/13 15:32:14;;;;;;;;;;;;;;;;;;5074899;28;836;-73
2021/01/13 15:34:39;;;;;;;;;;;;;;;;;;5074660;28;1289;-73
2021/01/13 15:37:05;;;;;;;;;;;;;;;;;;5073508;28;818;-73
2021/01/13 15:39:31;;;;;;;;;;;;;;;;;;5074608;28;802;-74
2021/01/13 15:42:00;;;;;;;;;;;;;;;;;;5074260;28;1894;-73
2021/01/13 15:44:28;;;;;;;;;;;;;;;;;;5074468;28;1309;-74
2021/01/13 15:46:53;;;;;;;;;;;;;;;;;;5072668;28;2047;-73
2021/01/13 15:49:19;;;;;;;;;;;;;;;;;;5074569;28;927;-73
2021/01/13 15:51:45;;;;;;;;;;;;;;;;;;5074378;28;818;-72
2021/01/13 15:54:11;;;;;;;;;;;;;;;;;;5073207;28;1473;-72
2021/01/13 15:56:39;;;;;;;;;;;;;;;;;;5073070;28;1432;-72
2021/01/13 15:59:05;;;;;;;;;;;;;;;;;;5074451;28;817;-72
2021/01/13 16:01:30;;;;;;;;;;;;;;;;;;5074028;28;1963;-72
2021/01/13 16:03:56;;;;;;;;;;;;;;;;;;5073267;28;1246;-73
2021/01/13 16:06:21;;;;;;;;;;;;;;;;;;5074451;28;1438;-72
2021/01/13 16:08:47;;;;;;;;;;;;;;;;;;5074169;28;957;-73
2021/01/13 16:11:13;;;;;;;;;;;;;;;;;;5072625;28;1495;-72
2021/01/13 16:13:40;;;;;;;;;;;;;;;;;;5074312;28;836;-73
2021/01/13 16:16:09;;;;;;;;;;;;;;;;;;5073987;28;1294;-73
2021/01/13 16:18:34;;;;;;;;;;;;;;;;;;5072982;28;801;-73
2021/01/13 16:21:00;;;;;;;;;;;;;;;;;;5074157;28;1902;-73
2021/01/13 16:23:25;;;;;;;;;;;;;;;;;;5074012;28;886;-73
2021/01/13 16:25:50;;;;;;;;;;;;;;;;;;5074216;28;1361;-73
2021/01/13 16:28:16;;;;;;;;;;;;;;;;;;5074002;28;797;-73
2021/01/13 16:30:41;;;;;;;;;;;;;;;;;;5073972;28;809;-73
2021/01/13 16:33:07;;;;;;;;;;;;;;;;;;5074111;28;868;-73
2021/01/13 16:35:33;;;;;;;;;;;;;;;;;;5073783;28;1306;-74
2021/01/13 16:38:00;;;;;;;;;;;;;;;;;;5074305;28;841;-74
2021/01/13 16:40:26;;;;;;;;;;;;;;;;;;5072658;28;1424;-74
2021/01/13 16:42:51;;;;;;;;;;;;;;;;;;5073977;28;1947;-73
2021/01/13 16:45:17;;;;;;;;;;;;;;;;;;5073669;28;1337;-73
2021/01/13 16:47:43;;;;;;;;;;;;;;;;;;5074308;28;858;-73
2021/01/13 16:50:09;;;;;;;;;;;;;;;;;;5073645;28;864;-73
2021/01/13 16:52:35;;;;;;;;;;;;;;;;;;5073726;28;854;-74
2021/01/13 16:55:01;;;;;;;;;;;;;;;;;;5076284;28;1404;-74
2021/01/13 16:57:30;;;;;;;;;;;;;;;;;;5077682;28;816;-74
2021/01/13 17:00:22;;;;;;;;;;;;;;;;;;5076124;28;1183;-74
2021/01/13 17:02:55;;;;;;;;;;;;;;;;;;5074718;28;1945;-73
2021/01/13 17:05:21;;;;;;;;;;;;;;;;;;5077469;28;1264;-74
2021/01/13 17:07:46;;;;;;;;;;;;;;;;;;5077478;28;829;-74
2021/01/13 17:10:14;;;;;;;;;;;;;;;;;;5077209;28;1062;-74
2021/01/13 17:12:40;;;;;;;;;;;;;;;;;;5077204;28;1068;-73
2021/01/13 17:15:07;;;;;;;;;;;;;;;;;;5077217;28;1393;-74
2021/01/13 17:17:33;;;;;;;;;;;;;;;;;;5075646;28;2585;-73
2021/01/13 17:20:03;;;;;;;;;;;;;;;;;;5077010;28;810;-73
2021/01/13 17:22:29;;;;;;;;;;;;;;;;;;5077046;28;1960;-73